sensor_id;sensor_type;location;lat;lon;timestamp;P1;durP1;ratioP1;P2;durP2;ratioP2
11418;SDS011;32800;44.876;13.880;2022-12-07T00:01:08;5.10;;;3.73;;
11418;SDS011;32800;44.876;13.880;2022-12-07T00:03:35;4.23;;;3.63;;
11418;SDS011;32800;44.876;13.880;2022-12-07T00:06:02;5.00;;;3.53;;
11418;SDS011;32800;44.876;13.880;2022-12-07T00:08:28;4.60;;;3.60;;
11418;SDS011;32800;44.876;13.880;2022-12-07T00:10:55;4.03;;;3.30;;
11418;SDS011;32800;44.876;13.880;2022-12-07T00:13:20;5.57;;;4.07;;
11418;SDS011;32800;44.876;13.880;2022-12-07T00:15:46;5.23;;;3.93;;
11418;SDS011;32800;44.876;13.880;2022-12-07T00:18:11;5.20;;;3.50;;
11418;SDS011;32800;44.876;13.880;2022-12-07T00:20:37;4.37;;;3.43;;
11418;SDS011;32800;44.876;13.880;2022-12-07T00:23:02;4.90;;;3.23;;
11418;SDS011;32800;44.876;13.880;2022-12-07T00:25:28;3.67;;;3.37;;
11418;SDS011;32800;44.876;13.880;2022-12-07T00:27:55;3.77;;;3.47;;
11418;SDS011;32800;44.876;13.880;2022-12-07T00:30:23;4.20;;;3.57;;
11418;SDS011;32800;44.876;13.880;2022-12-07T00:32:49;3.90;;;3.27;;
11418;SDS011;32800;44.876;13.880;2022-12-07T00:35:15;3.90;;;3.37;;
11418;SDS011;32800;44.876;13.880;2022-12-07T00:37:40;4.87;;;3.73;;
11418;SDS011;32800;44.876;13.880;2022-12-07T00:40:06;4.00;;;3.60;;
11418;SDS011;32800;44.876;13.880;2022-12-07T00:42:32;4.30;;;3.20;;
11418;SDS011;32800;44.876;13.880;2022-12-07T00:44:58;4.47;;;3.40;;
11418;SDS011;32800;44.876;13.880;2022-12-07T00:47:23;3.40;;;3.10;;
11418;SDS011;32800;44.876;13.880;2022-12-07T00:49:49;3.80;;;3.30;;
11418;SDS011;32800;44.876;13.880;2022-12-07T00:52:14;5.73;;;3.40;;
11418;SDS011;32800;44.876;13.880;2022-12-07T00:54:40;3.53;;;3.10;;
11418;SDS011;32800;44.876;13.880;2022-12-07T00:57:05;3.93;;;3.43;;
11418;SDS011;32800;44.876;13.880;2022-12-07T00:59:31;4.37;;;3.27;;
11418;SDS011;32800;44.876;13.880;2022-12-07T01:01:56;4.30;;;3.23;;
11418;SDS011;32800;44.876;13.880;2022-12-07T01:04:22;4.20;;;3.20;;
11418;SDS011;32800;44.876;13.880;2022-12-07T01:06:47;4.70;;;3.13;;
11418;SDS011;32800;44.876;13.880;2022-12-07T01:09:13;4.33;;;3.30;;
11418;SDS011;32800;44.876;13.880;2022-12-07T01:11:38;4.63;;;3.40;;
11418;SDS011;32800;44.876;13.880;2022-12-07T01:14:04;3.37;;;2.70;;
11418;SDS011;32800;44.876;13.880;2022-12-07T01:16:30;3.57;;;3.00;;
11418;SDS011;32800;44.876;13.880;2022-12-07T01:18:58;4.07;;;2.90;;
11418;SDS011;32800;44.876;13.880;2022-12-07T01:21:25;4.00;;;3.37;;
11418;SDS011;32800;44.876;13.880;2022-12-07T01:24:14;3.23;;;2.90;;
11418;SDS011;32800;44.876;13.880;2022-12-07T01:26:39;3.87;;;3.10;;
11418;SDS011;32800;44.876;13.880;2022-12-07T01:29:06;3.40;;;2.80;;
11418;SDS011;32800;44.876;13.880;2022-12-07T01:31:31;2.70;;;2.50;;
11418;SDS011;32800;44.876;13.880;2022-12-07T01:33:57;4.37;;;3.03;;
11418;SDS011;32800;44.876;13.880;2022-12-07T01:36:24;3.10;;;2.80;;
11418;SDS011;32800;44.876;13.880;2022-12-07T01:38:54;3.10;;;2.80;;
11418;SDS011;32800;44.876;13.880;2022-12-07T01:41:21;3.40;;;3.10;;
11418;SDS011;32800;44.876;13.880;2022-12-07T01:46:38;4.20;;;2.90;;
11418;SDS011;32800;44.876;13.880;2022-12-07T01:49:05;2.77;;;2.57;;
11418;SDS011;32800;44.876;13.880;2022-12-07T01:51:34;2.90;;;2.57;;
11418;SDS011;32800;44.876;13.880;2022-12-07T01:54:00;3.93;;;2.93;;
11418;SDS011;32800;44.876;13.880;2022-12-07T01:56:26;3.67;;;3.13;;
11418;SDS011;32800;44.876;13.880;2022-12-07T01:58:52;3.20;;;2.90;;
11418;SDS011;32800;44.876;13.880;2022-12-07T02:01:19;4.47;;;3.00;;
11418;SDS011;32800;44.876;13.880;2022-12-07T02:03:45;4.87;;;3.03;;
11418;SDS011;32800;44.876;13.880;2022-12-07T02:06:12;4.13;;;2.93;;
11418;SDS011;32800;44.876;13.880;2022-12-07T02:08:42;3.67;;;2.40;;
11418;SDS011;32800;44.876;13.880;2022-12-07T02:11:07;5.20;;;3.00;;
11418;SDS011;32800;44.876;13.880;2022-12-07T02:13:34;5.87;;;3.20;;
11418;SDS011;32800;44.876;13.880;2022-12-07T02:18:51;3.20;;;2.73;;
11418;SDS011;32800;44.876;13.880;2022-12-07T02:24:14;2.70;;;2.50;;
11418;SDS011;32800;44.876;13.880;2022-12-07T02:29:25;2.83;;;2.47;;
11418;SDS011;32800;44.876;13.880;2022-12-07T02:32:02;3.60;;;2.60;;
11418;SDS011;32800;44.876;13.880;2022-12-07T02:37:19;2.50;;;2.30;;
11418;SDS011;32800;44.876;13.880;2022-12-07T02:39:53;3.50;;;2.67;;
11418;SDS011;32800;44.876;13.880;2022-12-07T02:42:31;3.13;;;2.80;;
11418;SDS011;32800;44.876;13.880;2022-12-07T02:45:00;2.67;;;2.47;;
11418;SDS011;32800;44.876;13.880;2022-12-07T02:47:26;3.43;;;2.63;;
11418;SDS011;32800;44.876;13.880;2022-12-07T02:49:54;3.13;;;2.80;;
11418;SDS011;32800;44.876;13.880;2022-12-07T02:52:20;3.73;;;3.03;;
11418;SDS011;32800;44.876;13.880;2022-12-07T02:54:46;4.60;;;3.03;;
11418;SDS011;32800;44.876;13.880;2022-12-07T02:57:59;3.30;;;2.80;;
11418;SDS011;32800;44.876;13.880;2022-12-07T03:00:16;2.90;;;2.60;;
11418;SDS011;32800;44.876;13.880;2022-12-07T03:05:20;2.47;;;2.27;;
11418;SDS011;32800;44.876;13.880;2022-12-07T03:10:58;3.27;;;2.80;;
11418;SDS011;32800;44.876;13.880;2022-12-07T03:16:27;2.97;;;2.53;;
11418;SDS011;32800;44.876;13.880;2022-12-07T03:18:59;2.80;;;2.60;;
11418;SDS011;32800;44.876;13.880;2022-12-07T03:21:38;2.67;;;2.47;;
11418;SDS011;32800;44.876;13.880;2022-12-07T03:24:07;2.97;;;2.57;;
11418;SDS011;32800;44.876;13.880;2022-12-07T03:26:37;4.03;;;2.70;;
11418;SDS011;32800;44.876;13.880;2022-12-07T03:29:08;3.53;;;2.57;;
11418;SDS011;32800;44.876;13.880;2022-12-07T03:31:45;2.87;;;2.60;;
11418;SDS011;32800;44.876;13.880;2022-12-07T03:34:18;3.03;;;2.43;;
11418;SDS011;32800;44.876;13.880;2022-12-07T03:36:55;3.03;;;2.20;;
11418;SDS011;32800;44.876;13.880;2022-12-07T03:39:39;2.60;;;2.40;;
11418;SDS011;32800;44.876;13.880;2022-12-07T03:42:10;2.50;;;2.30;;
11418;SDS011;32800;44.876;13.880;2022-12-07T03:44:36;3.97;;;2.60;;
11418;SDS011;32800;44.876;13.880;2022-12-07T03:47:03;3.20;;;2.47;;
11418;SDS011;32800;44.876;13.880;2022-12-07T03:57:55;2.80;;;2.50;;
11418;SDS011;32800;44.876;13.880;2022-12-07T04:00:23;3.30;;;2.43;;
11418;SDS011;32800;44.876;13.880;2022-12-07T04:02:51;2.50;;;2.20;;
11418;SDS011;32800;44.876;13.880;2022-12-07T04:05:17;2.87;;;2.47;;
11418;SDS011;32800;44.876;13.880;2022-12-07T04:07:43;2.50;;;2.30;;
11418;SDS011;32800;44.876;13.880;2022-12-07T04:10:08;2.63;;;2.30;;
11418;SDS011;32800;44.876;13.880;2022-12-07T04:12:34;4.70;;;2.40;;
11418;SDS011;32800;44.876;13.880;2022-12-07T04:15:00;3.43;;;2.40;;
11418;SDS011;32800;44.876;13.880;2022-12-07T04:17:25;3.03;;;2.10;;
11418;SDS011;32800;44.876;13.880;2022-12-07T04:19:51;3.10;;;2.33;;
11418;SDS011;32800;44.876;13.880;2022-12-07T04:22:16;5.53;;;2.10;;
11418;SDS011;32800;44.876;13.880;2022-12-07T04:24:42;3.60;;;2.27;;
11418;SDS011;32800;44.876;13.880;2022-12-07T04:27:07;4.10;;;2.43;;
11418;SDS011;32800;44.876;13.880;2022-12-07T04:29:33;3.83;;;2.37;;
11418;SDS011;32800;44.876;13.880;2022-12-07T04:31:58;2.90;;;2.20;;
11418;SDS011;32800;44.876;13.880;2022-12-07T04:34:24;2.93;;;1.93;;
11418;SDS011;32800;44.876;13.880;2022-12-07T04:36:49;4.27;;;2.23;;
11418;SDS011;32800;44.876;13.880;2022-12-07T04:39:20;2.93;;;2.20;;
11418;SDS011;32800;44.876;13.880;2022-12-07T04:41:47;3.80;;;2.63;;
11418;SDS011;32800;44.876;13.880;2022-12-07T04:44:13;2.37;;;2.10;;
11418;SDS011;32800;44.876;13.880;2022-12-07T04:46:39;2.30;;;2.10;;
11418;SDS011;32800;44.876;13.880;2022-12-07T04:49:05;2.73;;;2.30;;
11418;SDS011;32800;44.876;13.880;2022-12-07T04:51:30;3.07;;;2.03;;
11418;SDS011;32800;44.876;13.880;2022-12-07T04:53:56;2.43;;;2.23;;
11418;SDS011;32800;44.876;13.880;2022-12-07T04:56:22;2.40;;;2.10;;
11418;SDS011;32800;44.876;13.880;2022-12-07T04:58:48;2.28;;;2.05;;
11418;SDS011;32800;44.876;13.880;2022-12-07T05:01:15;2.33;;;2.00;;
11418;SDS011;32800;44.876;13.880;2022-12-07T05:03:42;3.57;;;2.07;;
11418;SDS011;32800;44.876;13.880;2022-12-07T05:06:09;2.43;;;2.23;;
11418;SDS011;32800;44.876;13.880;2022-12-07T05:08:35;2.60;;;2.20;;
11418;SDS011;32800;44.876;13.880;2022-12-07T05:11:01;3.50;;;2.30;;
11418;SDS011;32800;44.876;13.880;2022-12-07T05:13:27;2.70;;;2.30;;
11418;SDS011;32800;44.876;13.880;2022-12-07T05:15:53;4.07;;;2.20;;
11418;SDS011;32800;44.876;13.880;2022-12-07T05:18:18;3.10;;;2.30;;
11418;SDS011;32800;44.876;13.880;2022-12-07T05:20:44;3.80;;;2.10;;
11418;SDS011;32800;44.876;13.880;2022-12-07T05:23:10;2.90;;;2.20;;
11418;SDS011;32800;44.876;13.880;2022-12-07T05:25:35;2.53;;;2.00;;
11418;SDS011;32800;44.876;13.880;2022-12-07T05:28:02;2.57;;;2.00;;
11418;SDS011;32800;44.876;13.880;2022-12-07T05:30:28;2.70;;;1.90;;
11418;SDS011;32800;44.876;13.880;2022-12-07T05:32:54;3.17;;;2.17;;
11418;SDS011;32800;44.876;13.880;2022-12-07T05:35:21;3.93;;;2.33;;
11418;SDS011;32800;44.876;13.880;2022-12-07T05:37:46;2.80;;;2.27;;
11418;SDS011;32800;44.876;13.880;2022-12-07T05:40:12;2.97;;;2.20;;
11418;SDS011;32800;44.876;13.880;2022-12-07T05:42:39;2.20;;;2.00;;
11418;SDS011;32800;44.876;13.880;2022-12-07T05:45:05;2.83;;;2.00;;
11418;SDS011;32800;44.876;13.880;2022-12-07T05:47:31;2.10;;;1.90;;
11418;SDS011;32800;44.876;13.880;2022-12-07T05:49:57;2.33;;;2.10;;
11418;SDS011;32800;44.876;13.880;2022-12-07T05:52:23;2.43;;;2.20;;
11418;SDS011;32800;44.876;13.880;2022-12-07T05:54:49;4.13;;;2.23;;
11418;SDS011;32800;44.876;13.880;2022-12-07T05:57:14;2.07;;;1.87;;
11418;SDS011;32800;44.876;13.880;2022-12-07T05:59:40;2.33;;;1.90;;
11418;SDS011;32800;44.876;13.880;2022-12-07T06:02:06;2.37;;;2.07;;
11418;SDS011;32800;44.876;13.880;2022-12-07T06:04:35;2.53;;;2.00;;
11418;SDS011;32800;44.876;13.880;2022-12-07T06:07:03;2.23;;;1.93;;
11418;SDS011;32800;44.876;13.880;2022-12-07T06:09:29;2.27;;;1.97;;
11418;SDS011;32800;44.876;13.880;2022-12-07T06:11:55;2.00;;;1.80;;
11418;SDS011;32800;44.876;13.880;2022-12-07T06:14:40;3.17;;;2.07;;
11418;SDS011;32800;44.876;13.880;2022-12-07T06:17:06;3.60;;;2.03;;
11418;SDS011;32800;44.876;13.880;2022-12-07T06:19:31;2.90;;;2.43;;
11418;SDS011;32800;44.876;13.880;2022-12-07T06:21:57;3.13;;;2.00;;
11418;SDS011;32800;44.876;13.880;2022-12-07T06:24:23;10.87;;;3.27;;
11418;SDS011;32800;44.876;13.880;2022-12-07T06:26:49;3.87;;;2.17;;
11418;SDS011;32800;44.876;13.880;2022-12-07T06:29:14;3.57;;;1.90;;
11418;SDS011;32800;44.876;13.880;2022-12-07T06:31:41;6.63;;;2.07;;
11418;SDS011;32800;44.876;13.880;2022-12-07T06:34:08;5.97;;;2.10;;
11418;SDS011;32800;44.876;13.880;2022-12-07T06:36:35;2.43;;;1.90;;
11418;SDS011;32800;44.876;13.880;2022-12-07T06:39:01;3.90;;;2.20;;
11418;SDS011;32800;44.876;13.880;2022-12-07T06:41:27;3.03;;;1.90;;
11418;SDS011;32800;44.876;13.880;2022-12-07T06:43:52;4.17;;;2.10;;
11418;SDS011;32800;44.876;13.880;2022-12-07T06:46:18;3.80;;;2.20;;
11418;SDS011;32800;44.876;13.880;2022-12-07T06:48:44;3.47;;;2.00;;
11418;SDS011;32800;44.876;13.880;2022-12-07T06:51:09;2.27;;;1.93;;
11418;SDS011;32800;44.876;13.880;2022-12-07T06:53:35;4.13;;;2.30;;
11418;SDS011;32800;44.876;13.880;2022-12-07T06:56:01;3.27;;;2.00;;
11418;SDS011;32800;44.876;13.880;2022-12-07T06:58:27;2.13;;;1.83;;
11418;SDS011;32800;44.876;13.880;2022-12-07T07:00:53;4.00;;;2.23;;
11418;SDS011;32800;44.876;13.880;2022-12-07T07:03:19;5.13;;;2.40;;
11418;SDS011;32800;44.876;13.880;2022-12-07T07:05:45;2.80;;;2.10;;
11418;SDS011;32800;44.876;13.880;2022-12-07T07:08:11;2.83;;;2.03;;
11418;SDS011;32800;44.876;13.880;2022-12-07T07:10:37;4.07;;;2.10;;
11418;SDS011;32800;44.876;13.880;2022-12-07T07:13:03;2.73;;;2.23;;
11418;SDS011;32800;44.876;13.880;2022-12-07T07:15:28;5.50;;;2.40;;
11418;SDS011;32800;44.876;13.880;2022-12-07T07:17:55;3.10;;;2.20;;
11418;SDS011;32800;44.876;13.880;2022-12-07T07:20:21;3.20;;;2.57;;
11418;SDS011;32800;44.876;13.880;2022-12-07T07:22:47;5.23;;;2.50;;
11418;SDS011;32800;44.876;13.880;2022-12-07T07:25:13;3.47;;;1.93;;
11418;SDS011;32800;44.876;13.880;2022-12-07T07:27:38;3.10;;;2.10;;
11418;SDS011;32800;44.876;13.880;2022-12-07T07:30:04;3.87;;;2.50;;
11418;SDS011;32800;44.876;13.880;2022-12-07T07:32:30;3.50;;;2.43;;
11418;SDS011;32800;44.876;13.880;2022-12-07T07:34:55;2.27;;;2.00;;
11418;SDS011;32800;44.876;13.880;2022-12-07T07:37:21;3.27;;;2.17;;
11418;SDS011;32800;44.876;13.880;2022-12-07T07:39:46;4.47;;;2.27;;
11418;SDS011;32800;44.876;13.880;2022-12-07T07:42:12;2.30;;;2.00;;
11418;SDS011;32800;44.876;13.880;2022-12-07T07:44:37;2.23;;;2.03;;
11418;SDS011;32800;44.876;13.880;2022-12-07T07:47:03;4.27;;;2.33;;
11418;SDS011;32800;44.876;13.880;2022-12-07T07:49:28;2.27;;;2.07;;
11418;SDS011;32800;44.876;13.880;2022-12-07T07:51:54;5.67;;;2.57;;
11418;SDS011;32800;44.876;13.880;2022-12-07T07:54:19;2.90;;;2.10;;
11418;SDS011;32800;44.876;13.880;2022-12-07T07:56:45;7.30;;;2.37;;
11418;SDS011;32800;44.876;13.880;2022-12-07T07:59:10;2.63;;;2.10;;
11418;SDS011;32800;44.876;13.880;2022-12-07T08:01:36;3.47;;;2.30;;
11418;SDS011;32800;44.876;13.880;2022-12-07T08:04:01;2.53;;;2.33;;
11418;SDS011;32800;44.876;13.880;2022-12-07T08:06:27;3.40;;;2.90;;
11418;SDS011;32800;44.876;13.880;2022-12-07T08:08:52;4.50;;;3.17;;
11418;SDS011;32800;44.876;13.880;2022-12-07T08:11:18;3.40;;;3.10;;
11418;SDS011;32800;44.876;13.880;2022-12-07T08:13:47;4.40;;;3.10;;
11418;SDS011;32800;44.876;13.880;2022-12-07T08:16:12;4.30;;;3.40;;
11418;SDS011;32800;44.876;13.880;2022-12-07T08:18:39;6.70;;;3.90;;
11418;SDS011;32800;44.876;13.880;2022-12-07T08:21:06;4.03;;;3.60;;
11418;SDS011;32800;44.876;13.880;2022-12-07T08:23:32;4.50;;;3.80;;
11418;SDS011;32800;44.876;13.880;2022-12-07T08:26:08;4.75;;;3.83;;
11418;SDS011;32800;44.876;13.880;2022-12-07T08:28:35;4.93;;;4.10;;
11418;SDS011;32800;44.876;13.880;2022-12-07T08:31:02;4.30;;;3.90;;
11418;SDS011;32800;44.876;13.880;2022-12-07T08:33:28;4.47;;;3.33;;
11418;SDS011;32800;44.876;13.880;2022-12-07T08:35:54;4.80;;;4.20;;
11418;SDS011;32800;44.876;13.880;2022-12-07T08:38:20;4.57;;;3.90;;
11418;SDS011;32800;44.876;13.880;2022-12-07T08:40:53;7.13;;;4.57;;
11418;SDS011;32800;44.876;13.880;2022-12-07T08:43:21;4.80;;;4.23;;
11418;SDS011;32800;44.876;13.880;2022-12-07T08:45:58;4.30;;;3.90;;
11418;SDS011;32800;44.876;13.880;2022-12-07T08:48:39;6.10;;;4.83;;
11418;SDS011;32800;44.876;13.880;2022-12-07T08:51:08;5.53;;;4.60;;
11418;SDS011;32800;44.876;13.880;2022-12-07T08:53:33;5.07;;;3.70;;
11418;SDS011;32800;44.876;13.880;2022-12-07T08:56:00;5.83;;;4.00;;
11418;SDS011;32800;44.876;13.880;2022-12-07T08:58:25;5.33;;;4.27;;
11418;SDS011;32800;44.876;13.880;2022-12-07T09:00:51;5.07;;;4.57;;
11418;SDS011;32800;44.876;13.880;2022-12-07T09:03:17;4.97;;;4.23;;
11418;SDS011;32800;44.876;13.880;2022-12-07T09:05:42;5.23;;;4.23;;
11418;SDS011;32800;44.876;13.880;2022-12-07T09:08:08;4.80;;;4.30;;
11418;SDS011;32800;44.876;13.880;2022-12-07T09:10:34;4.50;;;4.10;;
11418;SDS011;32800;44.876;13.880;2022-12-07T09:12:59;5.10;;;4.20;;
11418;SDS011;32800;44.876;13.880;2022-12-07T09:15:26;4.43;;;4.03;;
11418;SDS011;32800;44.876;13.880;2022-12-07T09:17:52;5.03;;;4.23;;
11418;SDS011;32800;44.876;13.880;2022-12-07T09:20:18;5.33;;;4.27;;
11418;SDS011;32800;44.876;13.880;2022-12-07T09:22:44;4.43;;;3.83;;
11418;SDS011;32800;44.876;13.880;2022-12-07T09:25:09;4.67;;;4.23;;
11418;SDS011;32800;44.876;13.880;2022-12-07T09:27:35;4.57;;;4.17;;
11418;SDS011;32800;44.876;13.880;2022-12-07T09:30:00;4.23;;;3.83;;
11418;SDS011;32800;44.876;13.880;2022-12-07T09:32:26;4.43;;;4.00;;
11418;SDS011;32800;44.876;13.880;2022-12-07T09:34:51;5.13;;;3.90;;
11418;SDS011;32800;44.876;13.880;2022-12-07T09:37:17;4.43;;;4.03;;
11418;SDS011;32800;44.876;13.880;2022-12-07T09:39:42;5.43;;;4.07;;
11418;SDS011;32800;44.876;13.880;2022-12-07T09:42:08;3.90;;;3.50;;
11418;SDS011;32800;44.876;13.880;2022-12-07T09:44:36;4.83;;;3.60;;
11418;SDS011;32800;44.876;13.880;2022-12-07T09:47:01;3.80;;;3.50;;
11418;SDS011;32800;44.876;13.880;2022-12-07T09:49:28;5.30;;;3.90;;
11418;SDS011;32800;44.876;13.880;2022-12-07T09:54:35;4.30;;;3.87;;
11418;SDS011;32800;44.876;13.880;2022-12-07T09:57:10;4.07;;;3.33;;
11418;SDS011;32800;44.876;13.880;2022-12-07T09:59:37;4.70;;;3.80;;
11418;SDS011;32800;44.876;13.880;2022-12-07T10:05:07;4.20;;;3.30;;
11418;SDS011;32800;44.876;13.880;2022-12-07T10:07:36;3.93;;;3.53;;
11418;SDS011;32800;44.876;13.880;2022-12-07T10:10:02;3.60;;;3.23;;
11418;SDS011;32800;44.876;13.880;2022-12-07T10:12:29;4.63;;;3.70;;
11418;SDS011;32800;44.876;13.880;2022-12-07T10:15:03;3.43;;;3.13;;
11418;SDS011;32800;44.876;13.880;2022-12-07T10:17:32;4.43;;;3.40;;
11418;SDS011;32800;44.876;13.880;2022-12-07T10:20:24;4.10;;;3.60;;
11418;SDS011;32800;44.876;13.880;2022-12-07T10:22:58;3.30;;;2.97;;
11418;SDS011;32800;44.876;13.880;2022-12-07T10:25:34;3.73;;;3.43;;
11418;SDS011;32800;44.876;13.880;2022-12-07T10:30:32;3.50;;;3.20;;
11418;SDS011;32800;44.876;13.880;2022-12-07T10:32:59;4.00;;;3.47;;
11418;SDS011;32800;44.876;13.880;2022-12-07T10:35:28;3.80;;;3.20;;
11418;SDS011;32800;44.876;13.880;2022-12-07T10:37:56;4.20;;;3.53;;
11418;SDS011;32800;44.876;13.880;2022-12-07T10:40:25;4.20;;;3.37;;
11418;SDS011;32800;44.876;13.880;2022-12-07T10:43:00;4.57;;;4.17;;
11418;SDS011;32800;44.876;13.880;2022-12-07T10:45:30;4.40;;;3.73;;
11418;SDS011;32800;44.876;13.880;2022-12-07T11:06:16;4.40;;;4.00;;
11418;SDS011;32800;44.876;13.880;2022-12-07T11:23:01;5.63;;;4.63;;
11418;SDS011;32800;44.876;13.880;2022-12-07T11:25:32;4.93;;;4.43;;
11418;SDS011;32800;44.876;13.880;2022-12-07T11:30:42;5.83;;;4.53;;
11418;SDS011;32800;44.876;13.880;2022-12-07T11:39:01;5.13;;;4.63;;
11418;SDS011;32800;44.876;13.880;2022-12-07T11:41:55;4.50;;;4.10;;
11418;SDS011;32800;44.876;13.880;2022-12-07T11:47:13;4.77;;;4.10;;
11418;SDS011;32800;44.876;13.880;2022-12-07T11:49:44;4.60;;;4.10;;
11418;SDS011;32800;44.876;13.880;2022-12-07T11:52:39;4.37;;;3.97;;
11418;SDS011;32800;44.876;13.880;2022-12-07T12:01:03;4.40;;;3.70;;
11418;SDS011;32800;44.876;13.880;2022-12-07T12:03:49;5.13;;;4.50;;
11418;SDS011;32800;44.876;13.880;2022-12-07T12:06:16;5.33;;;4.00;;
11418;SDS011;32800;44.876;13.880;2022-12-07T12:08:43;4.53;;;3.80;;
11418;SDS011;32800;44.876;13.880;2022-12-07T12:14:40;5.37;;;4.00;;
11418;SDS011;32800;44.876;13.880;2022-12-07T12:17:20;5.87;;;3.90;;
11418;SDS011;32800;44.876;13.880;2022-12-07T12:22:52;4.57;;;4.03;;
11418;SDS011;32800;44.876;13.880;2022-12-07T12:25:34;4.27;;;3.87;;
11418;SDS011;32800;44.876;13.880;2022-12-07T12:28:02;4.57;;;3.40;;
11418;SDS011;32800;44.876;13.880;2022-12-07T12:30:35;4.60;;;3.70;;
11418;SDS011;32800;44.876;13.880;2022-12-07T12:33:04;4.03;;;3.63;;
11418;SDS011;32800;44.876;13.880;2022-12-07T12:36:16;4.47;;;3.97;;
11418;SDS011;32800;44.876;13.880;2022-12-07T12:52:50;4.10;;;3.70;;
11418;SDS011;32800;44.876;13.880;2022-12-07T12:55:19;4.30;;;3.73;;
11418;SDS011;32800;44.876;13.880;2022-12-07T12:57:46;4.40;;;4.00;;
11418;SDS011;32800;44.876;13.880;2022-12-07T13:02:50;4.43;;;3.97;;
11418;SDS011;32800;44.876;13.880;2022-12-07T13:05:21;4.20;;;3.80;;
11418;SDS011;32800;44.876;13.880;2022-12-07T13:07:50;5.30;;;3.77;;
11418;SDS011;32800;44.876;13.880;2022-12-07T13:10:20;4.30;;;3.80;;
11418;SDS011;32800;44.876;13.880;2022-12-07T13:13:03;4.83;;;3.60;;
11418;SDS011;32800;44.876;13.880;2022-12-07T13:23:38;5.03;;;3.70;;
11418;SDS011;32800;44.876;13.880;2022-12-07T13:29:02;4.30;;;3.80;;
11418;SDS011;32800;44.876;13.880;2022-12-07T13:31:36;4.13;;;3.70;;
11418;SDS011;32800;44.876;13.880;2022-12-07T13:34:04;5.00;;;4.00;;
11418;SDS011;32800;44.876;13.880;2022-12-07T13:36:50;4.53;;;3.90;;
11418;SDS011;32800;44.876;13.880;2022-12-07T13:39:20;4.40;;;3.70;;
11418;SDS011;32800;44.876;13.880;2022-12-07T13:41:54;4.10;;;3.70;;
11418;SDS011;32800;44.876;13.880;2022-12-07T13:44:22;4.27;;;3.70;;
11418;SDS011;32800;44.876;13.880;2022-12-07T13:49:45;4.53;;;4.10;;
11418;SDS011;32800;44.876;13.880;2022-12-07T13:52:22;4.40;;;3.70;;
11418;SDS011;32800;44.876;13.880;2022-12-07T13:54:59;4.67;;;3.63;;
11418;SDS011;32800;44.876;13.880;2022-12-07T13:57:27;4.10;;;3.70;;
11418;SDS011;32800;44.876;13.880;2022-12-07T13:59:53;4.90;;;4.07;;
11418;SDS011;32800;44.876;13.880;2022-12-07T14:02:20;6.00;;;4.37;;
11418;SDS011;32800;44.876;13.880;2022-12-07T14:04:48;4.30;;;3.73;;
11418;SDS011;32800;44.876;13.880;2022-12-07T14:07:25;7.23;;;4.20;;
11418;SDS011;32800;44.876;13.880;2022-12-07T14:09:55;5.57;;;4.30;;
11418;SDS011;32800;44.876;13.880;2022-12-07T14:12:31;4.57;;;4.10;;
11418;SDS011;32800;44.876;13.880;2022-12-07T14:14:58;4.50;;;3.90;;
11418;SDS011;32800;44.876;13.880;2022-12-07T14:17:25;4.50;;;4.10;;
11418;SDS011;32800;44.876;13.880;2022-12-07T14:19:55;4.77;;;4.13;;
11418;SDS011;32800;44.876;13.880;2022-12-07T14:25:21;4.53;;;4.07;;
11418;SDS011;32800;44.876;13.880;2022-12-07T14:27:51;6.47;;;4.40;;
11418;SDS011;32800;44.876;13.880;2022-12-07T14:30:20;5.27;;;4.43;;
11418;SDS011;32800;44.876;13.880;2022-12-07T14:32:51;6.80;;;4.43;;
11418;SDS011;32800;44.876;13.880;2022-12-07T14:35:19;5.47;;;4.20;;
11418;SDS011;32800;44.876;13.880;2022-12-07T14:37:45;4.73;;;4.00;;
11418;SDS011;32800;44.876;13.880;2022-12-07T14:40:13;5.23;;;3.87;;
11418;SDS011;32800;44.876;13.880;2022-12-07T14:42:44;4.47;;;4.00;;
11418;SDS011;32800;44.876;13.880;2022-12-07T14:45:16;4.80;;;4.30;;
11418;SDS011;32800;44.876;13.880;2022-12-07T14:47:43;5.03;;;4.20;;
11418;SDS011;32800;44.876;13.880;2022-12-07T14:50:14;5.47;;;4.27;;
11418;SDS011;32800;44.876;13.880;2022-12-07T14:52:42;8.77;;;4.53;;
11418;SDS011;32800;44.876;13.880;2022-12-07T14:55:12;5.37;;;4.23;;
11418;SDS011;32800;44.876;13.880;2022-12-07T14:57:39;5.23;;;4.73;;
11418;SDS011;32800;44.876;13.880;2022-12-07T15:00:05;6.17;;;4.80;;
11418;SDS011;32800;44.876;13.880;2022-12-07T15:02:31;6.17;;;4.93;;
11418;SDS011;32800;44.876;13.880;2022-12-07T15:04:56;4.90;;;4.30;;
11418;SDS011;32800;44.876;13.880;2022-12-07T15:07:22;6.10;;;4.90;;
11418;SDS011;32800;44.876;13.880;2022-12-07T15:09:48;6.70;;;4.93;;
11418;SDS011;32800;44.876;13.880;2022-12-07T15:12:14;5.83;;;4.77;;
11418;SDS011;32800;44.876;13.880;2022-12-07T15:14:40;6.43;;;4.97;;
11418;SDS011;32800;44.876;13.880;2022-12-07T15:17:06;5.87;;;4.80;;
11418;SDS011;32800;44.876;13.880;2022-12-07T15:19:32;5.63;;;5.07;;
11418;SDS011;32800;44.876;13.880;2022-12-07T15:22:00;6.00;;;5.07;;
11418;SDS011;32800;44.876;13.880;2022-12-07T15:24:26;5.73;;;5.10;;
11418;SDS011;32800;44.876;13.880;2022-12-07T15:26:52;6.13;;;4.97;;
11418;SDS011;32800;44.876;13.880;2022-12-07T15:29:17;5.43;;;4.60;;
11418;SDS011;32800;44.876;13.880;2022-12-07T15:31:43;6.33;;;5.63;;
11418;SDS011;32800;44.876;13.880;2022-12-07T15:34:09;6.37;;;5.03;;
11418;SDS011;32800;44.876;13.880;2022-12-07T15:36:34;5.93;;;4.90;;
11418;SDS011;32800;44.876;13.880;2022-12-07T15:39:00;6.40;;;4.93;;
11418;SDS011;32800;44.876;13.880;2022-12-07T15:41:26;5.60;;;5.00;;
11418;SDS011;32800;44.876;13.880;2022-12-07T15:43:52;6.43;;;4.83;;
11418;SDS011;32800;44.876;13.880;2022-12-07T15:46:37;6.30;;;4.60;;
11418;SDS011;32800;44.876;13.880;2022-12-07T15:49:06;6.20;;;4.73;;
11418;SDS011;32800;44.876;13.880;2022-12-07T15:51:35;6.27;;;4.90;;
11418;SDS011;32800;44.876;13.880;2022-12-07T15:54:00;7.20;;;5.20;;
11418;SDS011;32800;44.876;13.880;2022-12-07T15:56:26;6.13;;;4.73;;
11418;SDS011;32800;44.876;13.880;2022-12-07T15:58:51;7.73;;;5.40;;
11418;SDS011;32800;44.876;13.880;2022-12-07T16:01:18;6.90;;;4.70;;
11418;SDS011;32800;44.876;13.880;2022-12-07T16:03:45;5.57;;;4.90;;
11418;SDS011;32800;44.876;13.880;2022-12-07T16:06:11;7.03;;;5.10;;
11418;SDS011;32800;44.876;13.880;2022-12-07T16:08:36;5.73;;;4.77;;
11418;SDS011;32800;44.876;13.880;2022-12-07T16:11:07;4.83;;;4.43;;
11418;SDS011;32800;44.876;13.880;2022-12-07T16:13:33;5.60;;;4.50;;
11418;SDS011;32800;44.876;13.880;2022-12-07T16:16:02;7.33;;;4.57;;
11418;SDS011;32800;44.876;13.880;2022-12-07T16:18:32;5.27;;;4.43;;
11418;SDS011;32800;44.876;13.880;2022-12-07T16:20:58;4.73;;;4.23;;
11418;SDS011;32800;44.876;13.880;2022-12-07T16:23:23;6.50;;;5.13;;
11418;SDS011;32800;44.876;13.880;2022-12-07T16:25:49;4.87;;;4.37;;
11418;SDS011;32800;44.876;13.880;2022-12-07T16:28:15;6.27;;;4.67;;
11418;SDS011;32800;44.876;13.880;2022-12-07T16:30:41;7.27;;;4.83;;
11418;SDS011;32800;44.876;13.880;2022-12-07T16:33:06;6.00;;;4.60;;
11418;SDS011;32800;44.876;13.880;2022-12-07T16:35:32;5.27;;;4.43;;
11418;SDS011;32800;44.876;13.880;2022-12-07T16:37:57;5.23;;;4.67;;
11418;SDS011;32800;44.876;13.880;2022-12-07T16:40:23;5.50;;;4.47;;
11418;SDS011;32800;44.876;13.880;2022-12-07T16:42:49;6.27;;;4.07;;
11418;SDS011;32800;44.876;13.880;2022-12-07T16:45:14;6.70;;;4.50;;
11418;SDS011;32800;44.876;13.880;2022-12-07T16:47:40;7.20;;;5.00;;